createdAt,value
2019-04-10T00:00:37.125Z,63.42
2019-04-10T00:03:08.187Z,66.62
2019-04-10T00:05:38.175Z,64.37
2019-04-10T00:08:08.209Z,57.70
2019-04-10T00:10:38.298Z,61.98
2019-04-10T00:13:08.075Z,58.38
2019-04-10T00:15:40.240Z,63.50
2019-04-10T00:18:10.038Z,62.70
2019-04-10T00:20:40.613Z,64.50
2019-04-10T00:23:10.949Z,63.60
2019-04-10T00:25:41.187Z,58.50
2019-04-10T00:28:11.570Z,53.85
2019-04-10T00:30:43.044Z,49.40
2019-04-10T00:33:12.851Z,49.60
2019-04-10T00:35:43.616Z,53.70
2019-04-10T00:38:13.639Z,50.90
2019-04-10T00:40:43.792Z,50.67
2019-04-10T00:43:13.522Z,55.03
2019-04-10T00:45:43.989Z,56.10
2019-04-10T00:48:13.668Z,48.68
2019-04-10T00:50:44.491Z,43.75
2019-04-10T00:53:14.289Z,42.83
2019-04-10T00:55:46.040Z,55.48
2019-04-10T00:58:16.232Z,43.92
2019-04-10T01:00:45.943Z,70.50
2019-04-10T01:03:17.624Z,51.77
2019-04-10T01:05:47.414Z,54.50
2019-04-10T01:08:18.148Z,49.80
2019-04-10T01:10:48.024Z,59.40
2019-04-10T01:13:18.771Z,48.50
2019-04-10T01:15:49.067Z,48.78
2019-04-10T01:18:19.209Z,44.33
2019-04-10T01:20:48.901Z,57.50
2019-04-10T01:23:20.492Z,52.43
2019-04-10T01:25:50.536Z,48.05
2019-04-10T01:28:20.591Z,53.63
2019-04-10T01:30:50.731Z,48.13
2019-04-10T01:33:22.800Z,49.30
2019-04-10T01:35:54.306Z,46.33
2019-04-10T01:38:25.117Z,54.93
2019-04-10T01:40:55.400Z,49.10
2019-04-10T01:43:25.199Z,44.50
2019-04-10T01:45:54.892Z,46.90
2019-04-10T01:48:24.684Z,56.88
2019-04-10T01:50:54.871Z,58.02
2019-04-10T01:53:24.572Z,66.95
2019-04-10T01:55:54.166Z,66.22
2019-04-10T01:58:25.212Z,68.97
2019-04-10T02:00:56.627Z,76.92
2019-04-10T02:03:26.238Z,65.42
2019-04-10T02:05:56.745Z,70.75
2019-04-10T02:08:27.970Z,71.77
2019-04-10T02:10:58.628Z,66.33
2019-04-10T02:13:29.443Z,68.45
2019-04-10T02:15:59.334Z,80.92
2019-04-10T02:18:29.643Z,66.87
2019-04-10T02:20:59.345Z,56.98
2019-04-10T02:23:30.190Z,56.53
2019-04-10T02:26:01.547Z,61.95
2019-04-10T02:28:31.214Z,60.63
2019-04-10T02:31:02.958Z,64.70
2019-04-10T02:33:33.680Z,64.45
2019-04-10T02:36:03.829Z,63.58
2019-04-10T02:38:50.838Z,64.90
2019-04-10T02:41:08.185Z,70.47
2019-04-10T02:43:38.020Z,61.73
2019-04-10T02:46:08.460Z,62.45
2019-04-10T02:48:39.366Z,57.13
2019-04-10T02:51:09.706Z,58.85
2019-04-10T02:53:41.160Z,65.32
2019-04-10T02:56:11.807Z,63.17
2019-04-10T02:58:42.698Z,62.70
2019-04-10T03:01:13.470Z,61.33
2019-04-10T03:03:44.703Z,58.02
2019-04-10T03:06:15.586Z,62.33
2019-04-10T03:09:02.288Z,56.33
2019-04-10T03:11:17.452Z,58.28
2019-04-10T03:13:49.047Z,52.08
2019-04-10T03:16:19.462Z,55.28
2019-04-10T03:18:49.367Z,68.12
2019-04-10T03:21:19.047Z,62.23
2019-04-10T03:23:49.581Z,64.42
2019-04-10T03:26:21.523Z,64.87
2019-04-10T03:28:51.479Z,53.55
2019-04-10T03:31:22.998Z,51.58
2019-04-10T03:33:55.850Z,50.88
2019-04-10T03:36:29.468Z,59.08
2019-04-10T03:39:03.063Z,60.70
2019-04-10T03:41:30.574Z,73.75
2019-04-10T03:44:00.573Z,63.53
2019-04-10T03:46:30.411Z,59.38
2019-04-10T03:49:01.211Z,62.80
2019-04-10T03:51:31.088Z,64.75
2019-04-10T03:54:00.826Z,63.10
2019-04-10T03:56:30.462Z,61.73
2019-04-10T03:59:00.215Z,58.15
2019-04-10T04:01:29.821Z,66.82
2019-04-10T04:03:59.450Z,79.45
2019-04-10T04:06:29.240Z,74.55
2019-04-10T04:09:06.680Z,75.40
2019-04-10T04:11:31.240Z,74.67
2019-04-10T04:14:02.395Z,69.53
2019-04-10T04:16:33.225Z,80.30
2019-04-10T04:19:03.920Z,85.77
2019-04-10T04:21:34.138Z,93.17
2019-04-10T04:24:03.860Z,90.90
2019-04-10T04:26:33.507Z,92.15
2019-04-10T04:29:04.082Z,91.75
2019-04-10T04:31:35.465Z,99.17
2019-04-10T04:34:06.306Z,95.12
2019-04-10T04:36:35.919Z,107.77
2019-04-10T04:39:17.860Z,101.60
2019-04-10T04:41:38.211Z,108.32
2019-04-10T04:44:08.116Z,106.58
2019-04-10T04:46:38.661Z,100.60
2019-04-10T04:49:09.493Z,99.40
2019-04-10T04:51:39.271Z,99.30
2019-04-10T04:54:08.988Z,109.50
2019-04-10T04:56:38.750Z,98.80
2019-04-10T04:59:10.192Z,108.65
2019-04-10T05:01:40.401Z,101.42
2019-04-10T05:04:10.996Z,112.42
2019-04-10T05:06:41.748Z,114.55
2019-04-10T05:09:11.688Z,101.67
2019-04-10T05:11:41.355Z,102.60
2019-04-10T05:14:11.094Z,100.50
2019-04-10T05:16:41.660Z,85.47
2019-04-10T05:19:12.223Z,96.47
2019-04-10T05:21:41.953Z,97.20
2019-04-10T05:24:11.671Z,101.15
2019-04-10T05:26:41.487Z,104.65
2019-04-10T05:29:11.326Z,105.22
2019-04-10T05:31:42.629Z,105.30
2019-04-10T05:34:13.261Z,108.37
2019-04-10T05:36:44.099Z,104.10
2019-04-10T05:39:14.701Z,105.83
2019-04-10T05:41:44.427Z,94.45
2019-04-10T05:44:14.063Z,91.22
2019-04-10T05:46:43.723Z,92.10
2019-04-10T05:49:13.433Z,86.65
2019-04-10T05:51:43.669Z,89.97
2019-04-10T05:54:13.497Z,95.22
2019-04-10T05:56:43.237Z,94.62
2019-04-10T05:59:13.609Z,96.67
2019-04-10T06:01:45.607Z,95.12
2019-04-10T06:04:15.502Z,94.28
2019-04-10T06:06:46.404Z,85.70
2019-04-10T06:09:16.330Z,87.55
2019-04-10T06:11:47.225Z,81.37
2019-04-10T06:14:17.773Z,89.00
2019-04-10T06:16:47.546Z,77.62
2019-04-10T06:19:17.887Z,88.33
2019-04-10T06:21:48.197Z,85.35
2019-04-10T06:24:18.373Z,82.62
2019-04-10T06:26:48.116Z,86.95
2019-04-10T06:29:19.085Z,76.67
2019-04-10T06:31:49.347Z,75.17
2019-04-10T06:34:19.133Z,75.47
2019-04-10T06:36:49.447Z,82.42
2019-04-10T06:39:20.533Z,80.03
2019-04-10T06:41:50.845Z,79.50
2019-04-10T06:44:21.857Z,98.83
2019-04-10T06:46:52.818Z,88.82
2019-04-10T06:49:22.833Z,90.70
2019-04-10T06:51:53.549Z,77.05
2019-04-10T06:54:23.465Z,75.28
2019-04-10T06:56:54.454Z,81.25
2019-04-10T06:59:24.364Z,79.30
2019-04-10T07:01:56.684Z,75.83
2019-04-10T07:04:26.584Z,71.40
2019-04-10T07:07:04.982Z,75.42
2019-04-10T07:09:29.833Z,74.60
2019-04-10T07:12:01.770Z,79.37
2019-04-10T07:14:33.944Z,71.57
2019-04-10T07:17:59.419Z,72.50
2019-04-10T07:20:48.984Z,78.10
2019-04-10T07:24:16.857Z,67.90
2019-04-10T07:30:33.896Z,66.37
2019-04-10T07:33:22.497Z,93.33
2019-04-10T07:36:13.654Z,73.87
2019-04-10T07:43:29.519Z,62.57
2019-04-10T07:50:10.423Z,67.08
2019-04-10T07:52:59.845Z,68.20
2019-04-10T07:56:13.604Z,93.52
2019-04-10T08:02:53.349Z,56.68
2019-04-10T08:05:35.386Z,58.90
2019-04-10T08:15:21.673Z,54.58
2019-04-10T08:18:23.266Z,66.40
2019-04-10T08:24:42.835Z,47.25
2019-04-10T08:27:47.289Z,37.38
2019-04-10T08:33:48.782Z,40.73
2019-04-10T08:36:31.771Z,43.58
2019-04-10T08:39:28.462Z,41.63
2019-04-10T08:41:59.925Z,39.37
2019-04-10T08:48:29.777Z,39.63
2019-04-10T08:51:29.073Z,41.23
2019-04-10T08:54:12.005Z,39.37
2019-04-10T08:56:54.656Z,36.83
2019-04-10T09:06:11.302Z,51.00
2019-04-10T09:12:31.705Z,45.63
2019-04-10T09:15:01.601Z,46.50
2019-04-10T09:18:11.499Z,45.38
2019-04-10T09:25:09.174Z,56.92
2019-04-10T09:28:00.201Z,37.40
2019-04-10T09:30:35.389Z,55.85
2019-04-10T09:33:15.763Z,65.35
2019-04-10T09:35:36.904Z,74.53
2019-04-10T09:38:06.706Z,61.93
2019-04-10T09:40:36.757Z,61.88
2019-04-10T09:43:07.338Z,72.97
2019-04-10T09:45:37.699Z,67.47
2019-04-10T09:48:10.632Z,73.70
2019-04-10T09:50:43.899Z,73.05
2019-04-10T09:53:15.017Z,75.97
2019-04-10T09:55:46.832Z,68.37
2019-04-10T09:58:17.590Z,74.15
2019-04-10T10:00:48.208Z,92.42
2019-04-10T10:03:19.413Z,68.83
2019-04-10T10:05:51.021Z,58.55
2019-04-10T10:08:21.005Z,65.95
2019-04-10T10:10:50.905Z,47.62
2019-04-10T10:13:25.564Z,50.28
2019-04-10T10:15:58.697Z,56.83
2019-04-10T10:18:29.647Z,52.70
2019-04-10T10:20:59.889Z,48.48
2019-04-10T10:23:29.725Z,52.30
2019-04-10T10:26:01.691Z,51.95
2019-04-10T10:28:31.554Z,58.35
2019-04-10T10:31:01.945Z,43.70
2019-04-10T10:33:32.687Z,47.93
2019-04-10T10:36:03.938Z,46.05
2019-04-10T10:38:35.252Z,43.83
2019-04-10T10:41:05.031Z,54.35
2019-04-10T10:43:34.928Z,51.42
2019-04-10T10:46:04.786Z,51.88
2019-04-10T10:48:34.448Z,57.80
2019-04-10T10:51:04.620Z,61.25
2019-04-10T10:53:34.584Z,58.68
2019-04-10T10:56:06.350Z,47.30
2019-04-10T10:58:36.121Z,81.12
2019-04-10T11:01:05.907Z,92.70
2019-04-10T11:03:35.587Z,92.97
2019-04-10T11:06:05.173Z,81.47
2019-04-10T11:08:35.496Z,80.45
2019-04-10T11:11:06.236Z,98.97
2019-04-10T11:13:36.993Z,84.58
2019-04-10T11:16:09.240Z,90.60
2019-04-10T11:18:42.463Z,93.60
2019-04-10T11:21:12.753Z,101.65
2019-04-10T11:23:42.552Z,101.00
2019-04-10T11:26:14.064Z,92.42
2019-04-10T11:28:43.547Z,98.97
2019-04-10T11:31:13.673Z,102.90
2019-04-10T11:33:49.664Z,100.20
2019-04-10T11:36:15.225Z,105.72
2019-04-10T11:38:46.493Z,100.58
2019-04-10T11:41:18.953Z,102.60
2019-04-10T11:43:48.083Z,98.37
2019-04-10T11:46:18.172Z,97.62
2019-04-10T11:48:49.303Z,105.77
2019-04-10T11:51:20.859Z,99.13
2019-04-10T11:53:54.413Z,95.77
2019-04-10T11:56:23.565Z,91.00
2019-04-10T11:58:56.323Z,96.25
2019-04-10T12:01:25.612Z,89.70
2019-04-10T12:03:56.800Z,90.07
2019-04-10T12:06:29.754Z,93.47
2019-04-10T12:09:19.446Z,91.37
2019-04-10T12:11:29.494Z,98.17
2019-04-10T12:13:59.136Z,104.58
2019-04-10T12:16:29.397Z,99.58
2019-04-10T12:18:59.256Z,98.07
2019-04-10T12:21:29.541Z,85.63
2019-04-10T12:24:01.179Z,87.90
2019-04-10T12:26:31.763Z,91.55
2019-04-10T12:29:02.549Z,92.92
2019-04-10T12:31:33.200Z,89.25
2019-04-10T12:34:03.820Z,92.53
2019-04-10T12:36:34.328Z,86.70
2019-04-10T12:39:07.869Z,85.87
2019-04-10T12:41:37.659Z,83.58
2019-04-10T12:44:07.550Z,84.80
2019-04-10T12:46:37.367Z,81.28
2019-04-10T12:49:07.443Z,75.20
2019-04-10T12:51:38.183Z,72.05
2019-04-10T12:54:08.255Z,73.42
2019-04-10T12:56:38.005Z,79.22
2019-04-10T12:59:08.877Z,80.32
2019-04-10T13:01:38.766Z,92.67
2019-04-10T13:04:08.453Z,88.70
2019-04-10T13:06:38.138Z,88.90
2019-04-10T13:09:12.469Z,81.72
2019-04-10T13:11:40.627Z,73.67
2019-04-10T13:14:10.614Z,87.37
2019-04-10T13:16:41.374Z,81.25
2019-04-10T13:19:11.865Z,80.67
2019-04-10T13:21:42.415Z,76.57
2019-04-10T13:24:13.248Z,81.00
2019-04-10T13:26:42.996Z,76.67
2019-04-10T13:29:12.790Z,82.50
2019-04-10T13:31:42.582Z,76.07
2019-04-10T13:34:13.158Z,94.23
2019-04-10T13:36:43.891Z,85.97
2019-04-10T13:39:17.745Z,82.75
2019-04-10T13:41:46.512Z,92.92
2019-04-10T13:44:16.372Z,78.72
2019-04-10T13:46:46.130Z,79.05
2019-04-10T13:49:15.757Z,85.32
2019-04-10T13:51:45.677Z,81.60
2019-04-10T13:54:16.548Z,100.38
2019-04-10T13:56:47.910Z,106.40
2019-04-10T13:59:18.027Z,99.30
2019-04-10T14:01:48.111Z,89.10
2019-04-10T14:04:18.752Z,90.67
2019-04-10T14:06:49.315Z,97.92
2019-04-10T14:09:34.855Z,99.87
2019-04-10T14:11:51.521Z,117.80
2019-04-10T14:14:21.378Z,89.20
2019-04-10T14:16:51.285Z,90.57
2019-04-10T14:19:21.423Z,90.10
2019-04-10T14:21:51.461Z,90.00
2019-04-10T14:24:21.992Z,82.35
2019-04-10T14:26:55.150Z,87.45
2019-04-10T14:29:25.280Z,91.35
2019-04-10T14:31:56.701Z,88.22
2019-04-10T14:34:26.369Z,95.47
2019-04-10T14:36:56.911Z,90.45
2019-04-10T14:39:27.252Z,94.05
2019-04-10T14:41:57.849Z,93.05
2019-04-10T14:44:28.492Z,101.20
2019-04-10T14:46:58.676Z,91.78
2019-04-10T14:49:29.301Z,93.97
2019-04-10T14:51:59.156Z,114.37
2019-04-10T14:54:32.258Z,112.67
2019-04-10T14:57:02.404Z,108.97
2019-04-10T14:59:32.376Z,118.30
2019-04-10T15:02:02.322Z,104.78
2019-04-10T15:04:33.036Z,114.82
2019-04-10T15:07:03.849Z,97.27
2019-04-10T15:09:34.693Z,113.32
2019-04-10T15:12:04.945Z,105.37
2019-04-10T15:14:35.429Z,98.80
2019-04-10T15:17:06.600Z,110.48
2019-04-10T15:19:36.721Z,113.45
2019-04-10T15:22:07.385Z,113.75
2019-04-10T15:24:37.130Z,114.25
2019-04-10T15:27:06.892Z,118.35
2019-04-10T15:29:36.686Z,116.90
2019-04-10T15:32:06.895Z,120.67
2019-04-10T15:34:37.475Z,108.83
2019-04-10T15:37:07.375Z,91.82
2019-04-10T15:39:39.140Z,89.03
2019-04-10T15:42:08.650Z,79.12
2019-04-10T15:44:39.359Z,82.20
2019-04-10T15:47:17.496Z,73.67
2019-04-10T15:49:41.122Z,72.67
2019-04-10T15:52:14.416Z,64.25
2019-04-10T15:54:43.814Z,56.80
2019-04-10T15:57:16.408Z,58.60
2019-04-10T15:59:46.379Z,54.93
2019-04-10T16:02:16.422Z,56.00
2019-04-10T16:04:49.018Z,62.97
2019-04-10T16:07:20.269Z,59.03
2019-04-10T16:09:53.686Z,57.58
2019-04-10T16:12:24.854Z,57.85
2019-04-10T16:14:54.931Z,59.95
2019-04-10T16:17:27.257Z,55.70
2019-04-10T16:20:02.153Z,55.60
2019-04-10T16:22:35.279Z,52.45
2019-04-10T16:25:09.478Z,56.75
2019-04-10T16:27:39.446Z,51.55
2019-04-10T16:30:10.947Z,52.60
2019-04-10T16:32:41.766Z,50.85
2019-04-10T16:35:13.567Z,49.00
2019-04-10T16:37:43.998Z,51.20
2019-04-10T16:40:15.001Z,52.88
2019-04-10T16:42:44.965Z,56.35
2019-04-10T16:45:15.755Z,53.55
2019-04-10T16:47:46.249Z,51.55
2019-04-10T16:50:16.121Z,60.73
2019-04-10T16:52:45.869Z,63.25
2019-04-10T16:55:15.761Z,59.58
2019-04-10T16:57:45.507Z,61.02
2019-04-10T17:00:17.141Z,60.95
2019-04-10T17:02:48.627Z,61.13
2019-04-10T17:05:18.622Z,63.17
2019-04-10T17:07:49.519Z,61.50
2019-04-10T17:10:24.092Z,59.10
2019-04-10T17:12:53.837Z,62.95
2019-04-10T17:15:23.964Z,61.60
2019-04-10T17:17:54.802Z,61.93
2019-04-10T17:20:26.532Z,65.22
2019-04-10T17:22:58.384Z,65.20
2019-04-10T17:25:28.471Z,67.60
2019-04-10T17:28:00.071Z,65.22
2019-04-10T17:30:29.717Z,70.90
2019-04-10T17:33:00.550Z,74.27
2019-04-10T17:35:31.684Z,78.92
2019-04-10T17:38:02.429Z,81.47
2019-04-10T17:40:41.746Z,91.08
2019-04-10T17:45:47.550Z,77.72
2019-04-10T17:48:17.819Z,91.80
2019-04-10T17:50:49.801Z,89.65
2019-04-10T17:53:33.492Z,86.45
2019-04-10T17:56:06.330Z,92.88
2019-04-10T17:58:41.478Z,99.67
2019-04-10T18:01:16.723Z,91.80
2019-04-10T18:03:57.173Z,97.50
2019-04-10T18:06:25.522Z,91.50
2019-04-10T18:08:57.782Z,101.02
2019-04-10T18:11:27.932Z,95.87
2019-04-10T18:13:59.092Z,100.40
2019-04-10T18:16:29.841Z,108.50
2019-04-10T18:19:00.110Z,101.18
2019-04-10T18:21:30.866Z,109.03
2019-04-10T18:24:01.956Z,124.30
2019-04-10T18:26:32.011Z,122.02
2019-04-10T18:29:03.341Z,123.78
2019-04-10T18:31:34.741Z,132.63
2019-04-10T18:34:08.128Z,134.15
2019-04-10T18:36:36.378Z,141.45
2019-04-10T18:39:11.380Z,145.50
2019-04-10T18:41:40.416Z,153.55
2019-04-10T18:44:10.984Z,152.85
2019-04-10T18:46:41.691Z,161.88
2019-04-10T18:49:11.544Z,163.43
2019-04-10T18:51:42.465Z,182.82
2019-04-10T18:54:12.530Z,174.97
2019-04-10T18:56:43.812Z,174.32
2019-04-10T18:59:16.221Z,186.57
2019-04-10T19:01:47.932Z,192.18
2019-04-10T19:04:22.420Z,210.28
2019-04-10T19:06:53.149Z,206.40
2019-04-10T19:09:27.933Z,225.97
2019-04-10T19:11:56.894Z,219.70
2019-04-10T19:14:27.938Z,214.87
2019-04-10T19:16:59.084Z,224.77
2019-04-10T19:19:29.204Z,218.02
2019-04-10T19:22:00.020Z,211.70
2019-04-10T19:24:32.399Z,209.00
2019-04-10T19:27:02.600Z,211.05
2019-04-10T19:29:32.401Z,216.73
2019-04-10T19:32:04.924Z,213.15
2019-04-10T19:34:34.635Z,190.30
2019-04-10T19:37:04.548Z,209.90
2019-04-10T19:39:35.545Z,195.40
2019-04-10T19:42:05.857Z,197.65
2019-04-10T19:44:37.282Z,181.18
2019-04-10T19:47:08.831Z,177.22
2019-04-10T19:49:39.988Z,176.10
2019-04-10T19:52:10.249Z,195.80
2019-04-10T19:54:40.871Z,184.30
2019-04-10T19:57:13.021Z,174.67
2019-04-10T19:59:44.053Z,188.17
2019-04-10T20:02:16.936Z,198.07
2019-04-10T20:04:47.006Z,196.82
2019-04-10T20:07:18.534Z,211.97
2019-04-10T20:09:51.167Z,205.67
2019-04-10T20:12:21.389Z,216.78
2019-04-10T20:14:53.416Z,214.70
2019-04-10T20:17:28.332Z,220.30
2019-04-10T20:19:58.693Z,250.40
2019-04-10T20:22:30.978Z,254.53
2019-04-10T20:25:02.148Z,241.97
2019-04-10T20:27:32.517Z,237.80
2019-04-10T20:30:03.723Z,251.88
2019-04-10T20:32:38.587Z,236.95
2019-04-10T20:35:11.925Z,254.07
2019-04-10T20:37:45.011Z,259.32
2019-04-10T20:40:22.152Z,246.93
2019-04-10T20:49:28.043Z,238.47
2019-04-10T20:56:04.492Z,252.20
2019-04-10T21:02:40.156Z,265.32
2019-04-10T21:15:55.006Z,232.70
2019-04-10T21:25:29.190Z,226.42
2019-04-10T21:50:49.650Z,170.28
2019-04-10T21:53:57.990Z,160.17
2019-04-10T22:04:23.008Z,146.47
2019-04-10T22:23:41.271Z,146.18
2019-04-10T22:26:48.154Z,132.52
2019-04-10T22:29:37.081Z,141.45
2019-04-10T22:44:45.354Z,152.75
2019-04-10T22:47:52.127Z,150.60
2019-04-10T22:50:41.123Z,145.30
2019-04-10T22:53:10.892Z,159.80
2019-04-10T23:00:09.745Z,154.40
2019-04-10T23:03:16.505Z,152.10
2019-04-10T23:13:09.242Z,156.45
2019-04-10T23:27:53.454Z,144.85
2019-04-10T23:30:59.417Z,131.85
2019-04-10T23:34:06.290Z,138.07
2019-04-10T23:48:30.793Z,139.18
2019-04-10T23:52:15.832Z,133.95
2019-04-10T23:55:26.155Z,130.10
